createdAt,value
2024-04-08T00:00:14.702Z,841.8
2024-04-08T00:01:58.395Z,838.2
2024-04-08T00:03:42.103Z,837.9
2024-04-08T00:05:25.816Z,835.5
2024-04-08T00:07:09.502Z,834.3
2024-04-08T00:08:53.216Z,832.6
2024-04-08T00:10:36.907Z,830.7
2024-04-08T00:12:20.614Z,828.6
2024-04-08T00:14:04.323Z,829.9
2024-04-08T00:15:48.014Z,829.2
2024-04-08T00:17:31.723Z,833.5
2024-04-08T00:19:15.435Z,833.3
2024-04-08T00:20:59.123Z,832.4
2024-04-08T00:22:42.830Z,834
2024-04-08T00:24:26.523Z,831.9
2024-04-08T00:26:10.241Z,832.7
2024-04-08T00:27:53.948Z,831.8
2024-04-08T00:29:37.642Z,831.6
2024-04-08T00:31:21.339Z,833.5
2024-04-08T00:33:05.048Z,835.4
2024-04-08T00:34:48.749Z,833.7
2024-04-08T00:36:32.447Z,827.9
2024-04-08T00:38:16.146Z,824.4
2024-04-08T00:39:59.854Z,826.5
2024-04-08T00:43:27.256Z,827.4
2024-04-08T00:45:10.962Z,829.4
2024-04-08T00:46:54.656Z,830.3
2024-04-08T00:48:38.368Z,831.3
2024-04-08T00:50:22.059Z,831.9
2024-04-08T00:52:05.760Z,830.9
2024-04-08T00:53:49.467Z,833.5
2024-04-08T00:55:33.168Z,831.7
2024-04-08T00:57:16.884Z,829.6
2024-04-08T00:59:00.582Z,828.9
2024-04-08T01:00:44.279Z,828.2
2024-04-08T01:02:27.990Z,830.5
2024-04-08T01:04:11.686Z,829.8
2024-04-08T01:05:55.384Z,828.3
2024-04-08T01:07:39.086Z,829.2
2024-04-08T01:09:22.790Z,828.5
2024-04-08T01:11:06.495Z,826.4
2024-04-08T01:12:50.208Z,830.1
2024-04-08T01:16:17.602Z,831.4
2024-04-08T01:18:01.304Z,831.4
2024-04-08T01:19:44.700Z,829.5
2024-04-08T01:21:28.412Z,829.4
2024-04-08T01:23:12.099Z,828.1
2024-04-08T01:24:55.804Z,827.5
2024-04-08T01:26:39.526Z,827.5
2024-04-08T01:28:23.213Z,824.4
2024-04-08T01:30:06.922Z,825.9
2024-04-08T01:43:56.532Z,830.9
2024-04-08T01:45:40.250Z,826.6
2024-04-08T01:47:23.939Z,825.9
2024-04-08T01:49:07.633Z,824.5
2024-04-08T01:50:51.340Z,826.7
2024-04-08T01:52:35.037Z,832.4
2024-04-08T01:54:18.752Z,828.4
2024-04-08T01:56:02.448Z,828.2
2024-04-08T01:57:46.153Z,825.4
2024-04-08T01:59:29.861Z,825.2
2024-04-08T02:01:13.569Z,826.6
2024-04-08T02:02:57.259Z,824.4
2024-04-08T02:04:40.956Z,825
2024-04-08T02:06:24.660Z,824.3
2024-04-08T02:08:08.370Z,828.8
2024-04-08T02:09:52.063Z,827.5
2024-04-08T02:11:35.774Z,824.4
2024-04-08T02:13:19.478Z,826.3
2024-04-08T02:15:03.179Z,826.4
2024-04-08T02:16:46.871Z,826.2
2024-04-08T02:18:30.573Z,825.1
2024-04-08T02:20:14.286Z,825.3
2024-04-08T02:21:57.998Z,825
2024-04-08T02:23:41.690Z,825
2024-04-08T02:25:25.384Z,824.6
2024-04-08T02:27:09.085Z,825
2024-04-08T02:28:52.794Z,825.2
2024-04-08T02:30:36.498Z,826.1
2024-04-08T02:32:20.198Z,824.9
2024-04-08T02:34:03.895Z,824.6
2024-04-08T02:35:47.605Z,827.6
2024-04-08T02:37:31.296Z,827.6
2024-04-08T02:39:15.006Z,828
2024-04-08T02:40:58.719Z,824.7
2024-04-08T02:42:42.415Z,825.8
2024-04-08T02:44:26.126Z,825.2
2024-04-08T02:46:09.826Z,819.4
2024-04-08T02:47:53.535Z,817.5
2024-04-08T02:49:37.229Z,818
2024-04-08T02:51:20.924Z,819.1
2024-04-08T02:53:04.635Z,816.1
2024-04-08T02:54:48.332Z,819.3
2024-04-08T02:56:32.035Z,819.8
2024-04-08T02:58:15.747Z,819.9
2024-04-08T02:59:59.437Z,818
2024-04-08T03:01:43.136Z,817.8
2024-04-08T03:03:26.846Z,818.6
2024-04-08T03:05:10.545Z,823.5
2024-04-08T03:06:54.244Z,821.7
2024-04-08T03:08:37.953Z,824.3
2024-04-08T03:10:21.655Z,826
2024-04-08T03:12:05.357Z,826.9
2024-04-08T03:15:32.765Z,827.5
2024-04-08T03:17:16.559Z,823.9
2024-04-08T03:19:00.170Z,821.2
2024-04-08T03:20:43.862Z,822.6
2024-04-08T03:22:27.580Z,821.4
2024-04-08T03:24:11.281Z,818.7
2024-04-08T03:25:54.973Z,816.1
2024-04-08T03:27:38.679Z,816.8
2024-04-08T03:29:22.373Z,819.4
2024-04-08T03:31:06.075Z,818.6
2024-04-08T03:32:49.788Z,818.7
2024-04-08T03:34:33.478Z,820.8
2024-04-08T03:36:17.189Z,819.5
2024-04-08T03:38:00.895Z,817
2024-04-08T03:39:44.603Z,817.9
2024-04-08T03:41:28.298Z,817.4
2024-04-08T03:43:12.005Z,819.2
2024-04-08T03:44:55.698Z,819.4
2024-04-08T03:48:23.142Z,812.4
2024-04-08T03:50:06.803Z,811.4
2024-04-08T03:51:50.512Z,812.1
2024-04-08T03:53:34.213Z,809.2
2024-04-08T03:55:17.912Z,809.6
2024-04-08T03:57:01.616Z,809
2024-04-08T03:58:45.320Z,812.6
2024-04-08T04:00:29.028Z,813.2
2024-04-08T04:02:12.737Z,815.8
2024-04-08T04:03:56.432Z,817
2024-04-08T04:05:40.128Z,815.7
2024-04-08T04:07:23.837Z,819.4
2024-04-08T04:10:51.311Z,824.7
2024-04-08T04:19:29.741Z,817.8
2024-04-08T04:21:13.449Z,815.3
2024-04-08T04:22:57.141Z,812.5
2024-04-08T04:24:40.859Z,813.1
2024-04-08T04:26:24.540Z,810.7
2024-04-08T04:28:08.251Z,810.6
2024-04-08T04:29:51.956Z,804.7
2024-04-08T04:31:35.663Z,812.9
2024-04-08T04:33:19.362Z,817.3
2024-04-08T04:35:03.070Z,814.6
2024-04-08T04:36:46.769Z,813.9
2024-04-08T04:38:30.465Z,812.9
2024-04-08T04:40:14.157Z,812.9
2024-04-08T04:41:57.862Z,813.8
2024-04-08T04:43:41.580Z,816
2024-04-08T04:45:25.290Z,814.7
2024-04-08T04:47:08.985Z,815.1
2024-04-08T04:48:52.685Z,813.3
2024-04-08T04:50:36.381Z,817.4
2024-04-08T04:52:20.094Z,814.7
2024-04-08T04:55:47.487Z,813.1
2024-04-08T05:04:26.000Z,826.7
2024-04-08T05:06:09.711Z,830.3
2024-04-08T05:07:53.407Z,842.3
2024-04-08T05:09:37.103Z,848.1
2024-04-08T05:11:20.829Z,853.9
2024-04-08T05:13:04.503Z,852.7
2024-04-08T05:14:48.215Z,851.9
2024-04-08T05:16:31.917Z,850
2024-04-08T05:18:15.623Z,847.6
2024-04-08T05:19:59.333Z,846.7
2024-04-08T05:21:43.028Z,846.7
2024-04-08T05:23:26.720Z,844.2
2024-04-08T05:25:10.430Z,844.3
2024-04-08T05:26:54.134Z,852.9
2024-04-08T05:28:37.834Z,856
2024-04-08T05:30:21.538Z,856.7
2024-04-08T05:32:05.237Z,858.8
2024-04-08T05:33:48.967Z,859.3
2024-04-08T05:35:32.640Z,862.3
2024-04-08T05:37:16.348Z,865.2
2024-04-08T05:39:00.063Z,867.1
2024-04-08T05:40:43.751Z,863.4
2024-04-08T05:42:27.454Z,865.1
2024-04-08T05:44:11.160Z,866.8
2024-04-08T05:45:54.856Z,867
2024-04-08T05:47:38.570Z,865.2
2024-04-08T05:49:22.259Z,866.2
2024-04-08T05:51:05.963Z,865.4
2024-04-08T05:52:49.659Z,867.2
2024-04-08T05:54:33.359Z,870.2
2024-04-08T05:56:17.077Z,874
2024-04-08T05:58:00.777Z,880
2024-04-08T05:59:44.478Z,876.7
2024-04-08T06:01:28.229Z,877.8
2024-04-08T06:03:11.883Z,877.9
2024-04-08T06:04:55.583Z,878.2
2024-04-08T06:06:39.296Z,880
2024-04-08T06:08:22.988Z,876.8
2024-04-08T06:10:06.703Z,875.5
2024-04-08T06:11:50.407Z,877
2024-04-08T06:13:34.104Z,876.9
2024-04-08T06:15:17.810Z,879.6
2024-04-08T06:17:01.495Z,884.1
2024-04-08T06:18:45.215Z,886.3
2024-04-08T06:20:28.914Z,888.1
2024-04-08T06:22:12.606Z,887.4
2024-04-08T06:25:40.018Z,880.3
2024-04-08T06:27:23.723Z,882.6
2024-04-08T06:29:07.435Z,885.1
2024-04-08T06:30:51.117Z,887.4
2024-04-08T06:32:34.826Z,891
2024-04-08T06:34:18.533Z,895.8
2024-04-08T06:36:02.224Z,895.1
2024-04-08T06:37:45.928Z,894.8
2024-04-08T06:39:29.630Z,889.9
2024-04-08T06:41:13.331Z,887.7
2024-04-08T06:42:57.040Z,889.4
2024-04-08T06:44:40.734Z,891
2024-04-08T06:46:24.453Z,889.5
2024-04-08T06:48:08.153Z,890.2
2024-04-08T06:49:51.843Z,891
2024-04-08T06:51:35.549Z,894.4
2024-04-08T06:53:19.241Z,918.3
2024-04-08T06:55:02.932Z,987
2024-04-08T06:56:46.667Z,954.5
2024-04-08T06:58:30.352Z,947.3
2024-04-08T07:00:14.071Z,939.9
2024-04-08T07:01:57.768Z,934.5
2024-04-08T07:03:41.465Z,934.3
2024-04-08T07:05:25.179Z,933.5
2024-04-08T07:07:08.865Z,933.1
2024-04-08T07:08:52.586Z,934.5
2024-04-08T07:10:36.282Z,939.7
2024-04-08T07:12:19.983Z,940.7
2024-04-08T07:14:03.672Z,944.5
2024-04-08T07:15:47.386Z,947.1
2024-04-08T07:17:31.088Z,948.1
2024-04-08T07:19:14.792Z,944.6
2024-04-08T07:20:58.498Z,944.1
2024-04-08T07:22:42.209Z,945.6
2024-04-08T07:24:25.906Z,946.1
2024-04-08T07:26:09.310Z,948.2
2024-04-08T07:27:52.991Z,948.4
2024-04-08T07:29:36.719Z,948.2
2024-04-08T07:31:20.396Z,947.4
2024-04-08T07:33:04.113Z,946.6
2024-04-08T07:34:47.806Z,946.9
2024-04-08T07:36:31.509Z,951.2
2024-04-08T07:38:15.225Z,950.6
2024-04-08T07:39:58.903Z,952.1
2024-04-08T07:41:42.610Z,954.1
2024-04-08T07:43:26.305Z,950.4
2024-04-08T07:45:10.077Z,949.4
2024-04-08T07:46:53.731Z,951.3
2024-04-08T07:48:37.407Z,949.9
2024-04-08T07:50:21.118Z,948.3
2024-04-08T07:52:04.832Z,946.1
2024-04-08T07:53:48.532Z,947.2
2024-04-08T07:55:32.256Z,948.2
2024-04-08T07:57:15.931Z,949.9
2024-04-08T07:58:59.638Z,951.9
2024-04-08T08:00:43.333Z,952.1
2024-04-08T08:02:27.044Z,954.9
2024-04-08T08:04:10.747Z,954.2
2024-04-08T08:05:54.443Z,953.6
2024-04-08T08:07:38.153Z,951.9
2024-04-08T08:09:21.844Z,951.8
2024-04-08T08:11:05.550Z,952.9
2024-04-08T08:12:49.252Z,951.9
2024-04-08T08:14:32.965Z,951.9
2024-04-08T08:16:16.667Z,949.8
2024-04-08T08:18:00.358Z,950.2
2024-04-08T08:19:44.071Z,949.8
2024-04-08T08:21:27.766Z,947.2
2024-04-08T08:23:11.469Z,946.7
2024-04-08T08:24:55.164Z,947.4
2024-04-08T08:26:38.910Z,946.6
2024-04-08T08:28:22.565Z,949.3
2024-04-08T08:30:06.282Z,949.3
2024-04-08T08:31:49.981Z,953.1
2024-04-08T08:33:33.806Z,951.6
2024-04-08T08:35:17.389Z,950.5
2024-04-08T08:37:01.076Z,948.2
2024-04-08T08:38:44.786Z,947.8
2024-04-08T08:40:28.501Z,945.4
2024-04-08T08:42:12.204Z,945.2
2024-04-08T08:43:55.898Z,945.2
2024-04-08T08:45:39.607Z,946.2
2024-04-08T08:47:23.305Z,946.2
2024-04-08T08:49:07.002Z,945.6
2024-04-08T08:50:50.707Z,946.4
2024-04-08T08:52:34.468Z,943.4
2024-04-08T08:54:18.109Z,941
2024-04-08T08:56:01.805Z,940.5
2024-04-08T08:57:45.521Z,944.7
2024-04-08T08:59:29.225Z,941.8
2024-04-08T09:01:12.914Z,944.6
2024-04-08T09:02:56.626Z,946.7
2024-04-08T09:04:40.326Z,948.8
2024-04-08T09:06:24.019Z,946.8
2024-04-08T09:08:07.735Z,948.7
2024-04-08T09:09:51.438Z,952.7
2024-04-08T09:11:35.133Z,954.5
2024-04-08T09:13:18.846Z,950.2
2024-04-08T09:15:02.554Z,945.2
2024-04-08T09:16:46.244Z,944.9
2024-04-08T09:18:29.947Z,945.7
2024-04-08T09:20:13.635Z,947.7
2024-04-08T09:21:57.347Z,946.9
2024-04-08T09:23:41.180Z,944.7
2024-04-08T09:25:24.753Z,948.4
2024-04-08T09:27:08.461Z,951.7
2024-04-08T09:28:52.162Z,954.3
2024-04-08T09:30:35.894Z,953.1
2024-04-08T09:32:19.559Z,953.7
2024-04-08T09:35:46.971Z,952.9
2024-04-08T09:37:30.667Z,950.2
2024-04-08T09:39:14.377Z,951.2
2024-04-08T09:40:58.074Z,947.9
2024-04-08T09:44:25.486Z,950.6
2024-04-08T09:46:09.203Z,952.2
2024-04-08T09:47:52.895Z,949.2
2024-04-08T09:49:36.588Z,947.3
2024-04-08T09:51:20.293Z,946.3
2024-04-08T09:53:03.996Z,953.6
2024-04-08T09:54:47.707Z,949.6
2024-04-08T09:56:31.392Z,953.5
2024-04-08T09:58:15.105Z,952
2024-04-08T09:59:58.807Z,949.7
2024-04-08T10:01:42.518Z,949.8
2024-04-08T10:03:26.204Z,951.4
2024-04-08T10:05:09.953Z,946.8
2024-04-08T10:06:53.609Z,947.8
2024-04-08T10:08:37.392Z,949.9
2024-04-08T10:10:21.023Z,947.3
2024-04-08T10:12:04.724Z,944.3
2024-04-08T10:13:48.446Z,943.3
2024-04-08T10:15:32.130Z,945.5
2024-04-08T10:17:15.830Z,948.4
2024-04-08T10:18:59.519Z,949.1
2024-04-08T10:20:43.244Z,951.5
2024-04-08T10:22:26.932Z,956.4
2024-04-08T10:24:10.633Z,959
2024-04-08T10:25:54.345Z,956.8
2024-04-08T10:27:38.040Z,953.1
2024-04-08T10:29:21.788Z,952.7
2024-04-08T10:31:05.435Z,949.7
2024-04-08T10:32:49.144Z,949
2024-04-08T10:34:32.847Z,950.1
2024-04-08T10:36:16.544Z,953.7
2024-04-08T10:38:00.266Z,955.7
2024-04-08T10:39:44.286Z,958.2
2024-04-08T10:41:27.662Z,957.9
2024-04-08T10:43:11.411Z,960.4
2024-04-08T10:44:55.200Z,963.3
2024-04-08T10:46:38.877Z,964.3
2024-04-08T10:48:22.826Z,962.8
2024-04-08T10:50:06.377Z,961.8
2024-04-08T10:51:50.201Z,961.7
2024-04-08T10:55:17.628Z,962.7
2024-04-08T10:57:01.078Z,961.4
2024-04-08T10:58:44.962Z,959
2024-04-08T11:00:28.582Z,959.2
2024-04-08T11:02:12.140Z,961.5
2024-04-08T11:03:56.017Z,962.4
2024-04-08T11:05:39.841Z,961.6
2024-04-08T11:09:07.145Z,962.2
2024-04-08T11:10:50.843Z,960.3
2024-04-08T11:12:34.699Z,959.4
2024-04-08T11:14:18.179Z,957.2
2024-04-08T11:16:01.708Z,959.1
2024-04-08T11:17:45.607Z,959
2024-04-08T11:19:29.349Z,958.5
2024-04-08T11:21:13.104Z,957.9
2024-04-08T11:22:56.838Z,957.5
2024-04-08T11:24:40.340Z,955.6
2024-04-08T11:26:24.070Z,953.2
2024-04-08T11:29:51.783Z,954.3
2024-04-08T11:31:35.252Z,956.3
2024-04-08T11:33:18.795Z,954.1
2024-04-08T11:35:02.695Z,957.2
2024-04-08T11:36:46.143Z,956
2024-04-08T11:38:29.850Z,954.5
2024-04-08T11:40:13.967Z,957.7
2024-04-08T11:41:57.404Z,959
2024-04-08T11:43:40.932Z,961.8
2024-04-08T11:45:24.689Z,964.8
2024-04-08T11:47:08.514Z,964.3
2024-04-08T11:48:52.411Z,961.4
2024-04-08T11:50:35.845Z,960
2024-04-08T11:52:19.457Z,959.5
2024-04-08T11:54:03.200Z,960.1
2024-04-08T11:55:46.856Z,960.2
2024-04-08T11:57:30.554Z,958.5
2024-04-08T11:59:14.609Z,957.6
2024-04-08T12:00:57.972Z,957.2
2024-04-08T12:02:41.665Z,959.3
2024-04-08T12:04:25.379Z,961.9
2024-04-08T12:06:09.069Z,961.3
2024-04-08T12:07:52.770Z,966.4
2024-04-08T12:09:36.479Z,967.9
2024-04-08T12:11:20.180Z,971.5
2024-04-08T12:13:03.878Z,969.2
2024-04-08T12:14:47.580Z,965.3
2024-04-08T12:16:31.286Z,969.9
2024-04-08T12:18:14.990Z,971.8
2024-04-08T12:19:58.688Z,971.9
2024-04-08T12:21:42.395Z,969.8
2024-04-08T12:23:26.097Z,967.7
2024-04-08T12:25:09.805Z,962.3
2024-04-08T12:26:53.502Z,963.1
2024-04-08T12:28:37.209Z,963
2024-04-08T12:30:20.913Z,967.7
2024-04-08T12:32:04.605Z,965.4
2024-04-08T12:33:48.303Z,965.1
2024-04-08T12:35:32.004Z,967.2
2024-04-08T12:37:15.717Z,968.9
2024-04-08T12:38:59.422Z,971.7
2024-04-08T12:40:43.117Z,974.4
2024-04-08T12:42:26.814Z,972.2
2024-04-08T12:44:10.520Z,968.8
2024-04-08T12:45:54.219Z,967.6
2024-04-08T12:47:37.925Z,966.9
2024-04-08T12:49:21.641Z,964.4
2024-04-08T12:51:05.342Z,964.3
2024-04-08T12:52:49.029Z,1004.4
2024-04-08T12:54:33.018Z,1019.2
2024-04-08T12:56:16.434Z,1017.6
2024-04-08T12:58:00.139Z,1012.6
2024-04-08T12:59:43.838Z,1011.5
2024-04-08T13:01:27.558Z,1010.7
2024-04-08T13:03:11.259Z,1012.4
2024-04-08T13:04:54.951Z,1009.3
2024-04-08T13:06:38.666Z,1010
2024-04-08T13:08:22.373Z,1007.5
2024-04-08T13:10:06.055Z,1008.7
2024-04-08T13:11:49.773Z,1013.4
2024-04-08T13:15:17.156Z,1011.9
2024-04-08T13:17:00.858Z,1014.4
2024-04-08T13:18:44.568Z,1012.5
2024-04-08T13:20:28.308Z,1013.8
2024-04-08T13:22:11.970Z,1020.6
2024-04-08T13:23:55.683Z,1023.5
2024-04-08T13:25:39.382Z,1022.2
2024-04-08T13:27:23.076Z,1023.2
2024-04-08T13:29:06.782Z,1025.7
2024-04-08T13:30:50.487Z,1025.8
2024-04-08T13:32:34.191Z,1026.4
2024-04-08T13:34:17.897Z,1026.5
2024-04-08T13:36:01.596Z,1026.7
2024-04-08T13:37:45.290Z,1025.9
2024-04-08T13:39:29.004Z,1029.4
2024-04-08T13:41:12.698Z,1028.8
2024-04-08T13:42:56.397Z,1023.9
2024-04-08T13:46:23.812Z,1030
2024-04-08T13:48:07.513Z,1029.1
2024-04-08T13:49:51.211Z,1031
2024-04-08T13:51:34.913Z,1032.4
2024-04-08T13:53:18.619Z,1027.4
2024-04-08T13:55:02.323Z,1026.6
2024-04-08T13:56:46.060Z,1025.2
2024-04-08T13:58:29.720Z,1026.8
2024-04-08T14:00:13.429Z,1026.9
2024-04-08T14:01:57.134Z,1025.7
2024-04-08T14:03:40.815Z,1025
2024-04-08T14:05:24.520Z,1025.8
2024-04-08T14:07:08.249Z,1025.2
2024-04-08T14:08:51.929Z,1025.8
2024-04-08T14:10:35.641Z,1028.3
2024-04-08T14:12:19.339Z,1029.2
2024-04-08T14:14:03.035Z,1029.5
2024-04-08T14:15:46.738Z,1029.7
2024-04-08T14:17:30.452Z,1028.8
2024-04-08T14:19:14.158Z,1027.3
2024-04-08T14:20:57.859Z,1026
2024-04-08T14:22:41.553Z,1026.8
2024-04-08T14:24:25.261Z,1029.1
2024-04-08T14:26:08.951Z,1031.1
2024-04-08T14:27:52.664Z,1031.6
2024-04-08T14:31:20.074Z,1031.6
2024-04-08T14:33:03.760Z,1034.4
2024-04-08T14:34:47.483Z,1034.1
2024-04-08T14:36:31.177Z,1033
2024-04-08T14:38:14.868Z,1035.7
2024-04-08T14:39:58.575Z,1034.6
2024-04-08T14:41:42.289Z,1034.4
2024-04-08T14:43:26.000Z,1036.4
2024-04-08T14:45:09.690Z,1038.1
2024-04-08T14:46:53.393Z,1038
2024-04-08T14:48:37.102Z,1038.9
2024-04-08T14:50:20.790Z,1037.3
2024-04-08T15:00:43.030Z,1043.3
2024-04-08T15:04:10.413Z,1176.3
2024-04-08T15:05:54.105Z,1188.9
2024-04-08T15:07:37.841Z,1170.9
2024-04-08T15:09:21.528Z,1147.6
2024-04-08T15:11:05.231Z,1129.6
2024-04-08T15:12:48.935Z,1119.8
2024-04-08T15:14:32.634Z,1121.7
2024-04-08T15:16:16.325Z,1121.7
2024-04-08T15:18:00.040Z,1123.2
2024-04-08T15:19:43.729Z,1122.5
2024-04-08T15:21:27.648Z,1123
2024-04-08T15:23:11.159Z,1120
2024-04-08T15:24:54.886Z,1116.4
2024-04-08T15:26:38.633Z,1121.5
2024-04-08T15:28:22.250Z,1124.3
2024-04-08T15:30:06.042Z,1124
2024-04-08T15:31:49.691Z,1122
2024-04-08T15:33:33.349Z,1120.4
2024-04-08T15:35:17.058Z,1120.2
2024-04-08T15:37:00.745Z,1123.4
2024-04-08T15:38:44.471Z,1129.1
2024-04-08T15:49:06.675Z,1129.7
2024-04-08T15:50:50.387Z,1128.5
2024-04-08T15:52:34.077Z,1127
2024-04-08T15:54:18.115Z,1123.2
2024-04-08T15:56:01.677Z,1122.5
2024-04-08T15:57:45.188Z,1124.3
2024-04-08T15:59:28.888Z,1127.7
2024-04-08T16:01:12.610Z,1128.5
2024-04-08T16:02:56.292Z,1126.7
2024-04-08T16:04:39.995Z,1126.4
2024-04-08T16:06:23.693Z,1127.5
2024-04-08T16:08:07.411Z,1130.3
2024-04-08T16:09:51.102Z,1131.2
2024-04-08T16:11:34.798Z,1129.8
2024-04-08T16:13:18.514Z,1134.9
2024-04-08T16:15:02.232Z,1136.3
2024-04-08T16:16:45.918Z,1135.9
2024-04-08T16:18:29.607Z,1136.1
2024-04-08T16:20:13.320Z,1135.2
2024-04-08T16:21:57.021Z,1134.4
2024-04-08T16:23:40.724Z,1168.4
2024-04-08T16:25:24.434Z,1202.7
2024-04-08T16:27:08.137Z,1203.3
2024-04-08T16:28:51.841Z,1200.5
2024-04-08T16:30:35.538Z,1194.5
2024-04-08T16:32:19.251Z,1187.1
2024-04-08T16:34:02.966Z,1185.7
2024-04-08T16:35:46.438Z,1192.3
2024-04-08T16:37:30.039Z,1204.2
2024-04-08T16:39:13.757Z,1210.9
2024-04-08T16:40:57.438Z,1211.9
2024-04-08T16:42:41.142Z,1209.6
2024-04-08T16:44:24.856Z,1208
2024-04-08T16:46:08.531Z,1216.1
2024-04-08T16:47:52.256Z,1222.1
2024-04-08T16:49:35.949Z,1223.6
2024-04-08T16:51:19.659Z,1230.1
2024-04-08T16:53:03.373Z,1238.9
2024-04-08T16:54:47.058Z,1240.3
2024-04-08T16:56:30.763Z,1237.8
2024-04-08T16:58:14.473Z,1240.3
2024-04-08T16:59:58.169Z,1241.4
2024-04-08T17:01:41.871Z,1242.7
2024-04-08T17:03:25.567Z,1240.5
2024-04-08T17:05:09.273Z,1234.2
2024-04-08T17:06:53.027Z,1234.1
2024-04-08T17:08:36.686Z,1244.2
2024-04-08T17:10:20.388Z,1246.3
2024-04-08T17:12:04.075Z,1243.4
2024-04-08T17:13:47.897Z,1240.5
2024-04-08T17:15:31.500Z,1241.1
2024-04-08T17:17:15.199Z,1243.8
2024-04-08T17:20:42.608Z,1249.1
2024-04-08T17:22:26.305Z,1244.2
2024-04-08T17:24:10.002Z,1246.5
2024-04-08T17:25:53.698Z,1246
2024-04-08T17:27:37.411Z,1242.3
2024-04-08T17:29:21.120Z,1238.3
2024-04-08T17:31:04.803Z,1241.5
2024-04-08T17:32:48.531Z,1242.4
2024-04-08T17:34:32.211Z,1243.9
2024-04-08T17:36:15.950Z,1245.2
2024-04-08T17:37:59.640Z,1245.1
2024-04-08T17:39:43.326Z,1245.3
2024-04-08T17:41:27.029Z,1246.8
2024-04-08T17:43:10.740Z,1245.8
2024-04-08T17:44:54.441Z,1242.3
2024-04-08T17:46:38.131Z,1238.3
2024-04-08T17:48:21.845Z,1230.6
2024-04-08T17:50:05.539Z,1231.2
2024-04-08T17:51:49.556Z,1230.6
2024-04-08T17:53:33.279Z,1233.1
2024-04-08T17:55:16.698Z,1239.5
2024-04-08T17:57:00.582Z,1241
2024-04-08T17:58:44.077Z,1239.6
2024-04-08T18:00:28.040Z,1243.7
2024-04-08T18:02:11.763Z,1243.4
2024-04-08T18:03:55.487Z,1237.5
2024-04-08T18:05:39.184Z,1240.7
2024-04-08T18:07:22.947Z,1243.8
2024-04-08T18:09:06.274Z,1242
2024-04-08T18:10:49.980Z,1242.8
2024-04-08T18:12:33.708Z,1245
2024-04-08T18:14:17.558Z,1245.2
2024-04-08T18:16:01.281Z,1247.1
2024-04-08T18:17:45.063Z,1250.7
2024-04-08T18:19:28.688Z,1249.9
2024-04-08T18:21:12.474Z,1250.2
2024-04-08T18:22:56.071Z,1251.4
2024-04-08T18:24:39.714Z,1251.6
2024-04-08T18:26:23.300Z,1251.1
2024-04-08T18:28:06.998Z,1250.5
2024-04-08T18:29:51.054Z,1250.1
2024-04-08T18:31:34.393Z,1248
2024-04-08T18:33:18.088Z,1246.4
2024-04-08T18:35:01.818Z,1245.4
2024-04-08T18:36:45.810Z,1242.9
2024-04-08T18:38:29.588Z,1240
2024-04-08T18:40:13.162Z,1238.2
2024-04-08T18:41:56.764Z,1232.6
2024-04-08T18:43:40.613Z,1234
2024-04-08T18:45:24.169Z,1234.3
2024-04-08T18:47:07.989Z,1236.6
2024-04-08T18:48:51.775Z,1240.7
2024-04-08T18:50:35.431Z,1235.8
2024-04-08T18:52:19.041Z,1233.9
2024-04-08T18:54:02.524Z,1236
2024-04-08T18:55:46.230Z,1235.6
2024-04-08T18:57:30.087Z,1235
2024-04-08T18:59:13.946Z,1232.5
2024-04-08T19:00:57.333Z,1228.4
2024-04-08T19:02:41.029Z,1229.9
2024-04-08T19:04:24.748Z,1229.5
2024-04-08T19:06:08.433Z,1230.8
2024-04-08T19:07:52.311Z,1230.8
2024-04-08T19:09:35.842Z,1227.8
2024-04-08T19:11:19.549Z,1230.7
2024-04-08T19:13:03.398Z,1229.3
2024-04-08T19:14:47.234Z,1228.3
2024-04-08T19:16:30.930Z,1224.7
2024-04-08T19:18:14.441Z,1228.6
2024-04-08T19:19:58.364Z,1227.7
2024-04-08T19:21:41.770Z,1221.8
2024-04-08T19:23:25.857Z,1222.5
2024-04-08T19:25:09.174Z,1223.9
2024-04-08T19:26:53.289Z,1225.9
2024-04-08T19:28:36.945Z,1226.3
2024-04-08T19:30:20.638Z,1225.9
2024-04-08T19:32:04.283Z,1224.5
2024-04-08T19:33:47.687Z,1226
2024-04-08T19:35:31.577Z,1224.9
2024-04-08T19:37:15.345Z,1224.8
2024-04-08T19:38:59.107Z,1225.1
2024-04-08T19:40:42.497Z,1224.9
2024-04-08T19:42:26.293Z,1224.7
2024-04-08T19:44:10.078Z,1219.8
2024-04-08T19:45:53.713Z,1215.3
2024-04-08T19:47:37.295Z,1218.2
2024-04-08T19:49:21.270Z,1221.9
2024-04-08T19:57:59.605Z,1218.6
2024-04-08T19:59:43.294Z,1216.1
2024-04-08T20:01:27.307Z,1218.3
2024-04-08T20:03:10.620Z,1218.2
2024-04-08T20:04:54.321Z,1216
2024-04-08T20:06:38.018Z,1216.9
2024-04-08T20:08:21.731Z,1219.9
2024-04-08T20:10:05.444Z,1219.9
2024-04-08T20:11:49.115Z,1218.1
2024-04-08T20:13:32.818Z,1216.4
2024-04-08T20:15:16.540Z,1217.6
2024-04-08T20:17:00.243Z,1218.8
2024-04-08T20:18:43.933Z,1221.8
2024-04-08T20:20:27.652Z,1224.8
2024-04-08T20:22:11.335Z,1226.6
2024-04-08T20:23:55.043Z,1229.9
2024-04-08T20:25:38.750Z,1229.2
2024-04-08T20:27:22.443Z,1226.4
2024-04-08T20:29:06.146Z,1223.1
2024-04-08T20:30:49.859Z,1221.1
2024-04-08T20:32:33.553Z,1223.5
2024-04-08T20:34:17.257Z,1223.5
2024-04-08T20:36:00.948Z,1223.2
2024-04-08T20:37:44.657Z,1214.9
2024-04-08T20:39:28.366Z,1215.6
2024-04-08T20:41:12.074Z,1219.3
2024-04-08T20:42:55.770Z,1217.3
2024-04-08T20:44:39.465Z,1220
2024-04-08T20:46:23.173Z,1222.3
2024-04-08T20:48:06.891Z,1219.1
2024-04-08T20:49:50.579Z,1214
2024-04-08T20:51:34.279Z,1216.4
2024-04-08T20:53:17.991Z,1215
2024-04-08T20:55:01.703Z,1216.3
2024-04-08T20:56:45.398Z,1219.2
2024-04-08T20:58:29.113Z,1212.4
2024-04-08T21:00:12.794Z,1206.8
2024-04-08T21:01:56.499Z,1202.4
2024-04-08T21:03:40.195Z,1198.8
2024-04-08T21:05:23.907Z,1200.1
2024-04-08T21:07:07.605Z,1208.2
2024-04-08T21:08:51.487Z,1208.9
2024-04-08T21:10:35.026Z,1208.3
2024-04-08T21:12:18.708Z,1207.7
2024-04-08T21:14:02.413Z,1204.7
2024-04-08T21:15:46.117Z,1203.2
2024-04-08T21:17:29.810Z,1202.6
2024-04-08T21:20:57.222Z,1198.7
2024-04-08T21:24:24.630Z,1197.5
2024-04-08T21:27:52.046Z,1196.5
2024-04-08T21:29:35.756Z,1200.2
2024-04-08T21:31:19.444Z,1198.6
2024-04-08T21:33:03.131Z,1197.3
2024-04-08T21:34:46.842Z,1197.1
2024-04-08T21:55:31.276Z,1201.8
2024-04-08T21:57:14.993Z,1199.1
2024-04-08T21:58:58.667Z,1194.5
2024-04-08T22:00:42.387Z,1187.2
2024-04-08T22:02:26.072Z,1181.2
2024-04-08T22:04:09.792Z,1180.8
2024-04-08T22:05:53.483Z,1179.1
2024-04-08T22:07:37.183Z,1181.3
2024-04-08T22:09:20.891Z,1182.6
2024-04-08T22:11:04.583Z,1182.8
2024-04-08T22:12:48.297Z,1178.4
2024-04-08T22:14:32.002Z,1176.4
2024-04-08T22:16:15.696Z,1173
2024-04-08T22:17:59.387Z,1170.3
2024-04-08T22:19:43.107Z,1163.4
2024-04-08T22:21:26.802Z,1163.6
2024-04-08T22:23:10.502Z,1165.3
2024-04-08T22:24:54.202Z,1164
2024-04-08T22:26:37.909Z,1162.6
2024-04-08T22:28:21.624Z,1161.3
2024-04-08T22:30:05.320Z,1159.9
2024-04-08T22:31:49.013Z,1163.9
2024-04-08T22:33:32.719Z,1163.4
2024-04-08T22:35:16.422Z,1157.3
2024-04-08T22:37:00.144Z,1153.8
2024-04-08T22:38:43.836Z,1153.7
2024-04-08T22:40:27.538Z,1155.2
2024-04-08T22:42:11.242Z,1157
2024-04-08T22:43:54.945Z,1158.8
2024-04-08T22:45:38.643Z,1157.3
2024-04-08T22:47:22.342Z,1157.2
2024-04-08T22:49:06.073Z,1153.1
2024-04-08T22:50:49.758Z,1147.6
2024-04-08T22:52:33.451Z,1146.5
2024-04-08T22:54:17.150Z,1148
2024-04-08T22:56:00.850Z,1146.3
2024-04-08T22:57:44.564Z,1145.6
2024-04-08T22:59:28.261Z,1145.9
2024-04-08T23:01:11.969Z,1145.5
2024-04-08T23:02:55.663Z,1144.3
2024-04-08T23:04:39.373Z,1143.1
2024-04-08T23:06:23.074Z,1138.4
2024-04-08T23:08:06.782Z,1136
2024-04-08T23:09:50.472Z,1136.9
2024-04-08T23:11:34.174Z,1143.1
2024-04-08T23:13:17.886Z,1145.3
2024-04-08T23:15:01.577Z,1144.2
2024-04-08T23:16:45.296Z,1147.2
2024-04-08T23:18:28.974Z,1145.6
2024-04-08T23:20:12.689Z,1142.6
2024-04-08T23:21:56.391Z,1138.2
2024-04-08T23:23:40.080Z,1135
2024-04-08T23:25:23.789Z,1135.7
2024-04-08T23:27:07.500Z,1138.5
2024-04-08T23:28:51.206Z,1139.5
2024-04-08T23:30:34.907Z,1136.7
2024-04-08T23:32:18.608Z,1132.4
2024-04-08T23:34:02.312Z,1129
2024-04-08T23:35:46.015Z,1130.8
2024-04-08T23:37:29.699Z,1130.2
2024-04-08T23:39:13.407Z,1131.6
2024-04-08T23:40:57.108Z,1132.1
2024-04-08T23:42:40.820Z,1131.3
2024-04-08T23:44:24.523Z,1129.7
2024-04-08T23:46:08.220Z,1125